Nearby METAR Reports

 

KVCT - Victoria, Texas, USA
Distance from station: E 12mi, 20km
Updated: Fri, 24-Sep-2021 3:51am CDT
Clear
Clear
 Wind from NE
Wind: NE 3 mph , 6 km/h
Temperature: 57°F , 14°C
Dew Point: 55°F , 13°C
Humidity: 94%
Barometer: 30.04 inHg , 1017.3 hPa
Clouds: Clear
Visibility: 10 miles , 16 km
2021/09/24 08:51 KVCT 240851Z AUTO 04003KT 10SM CLR 14/13 A3004 RMK AO2 SLP172 T01440128 58005
KPKV - Port Lavaca, Texas, USA
Distance from station: ESE 31mi, 50km
Updated: Fri, 24-Sep-2021 4:30am CDT
Clear
Clear
 Wind from N
Wind: N 3 mph , 6 km/h
Temperature: 64°F , 18°C
Dew Point: 57°F , 14°C
Humidity: 78%
Barometer: 30.05 inHg , 1017.6 hPa
Clouds: Clear
Visibility: 10 miles , 16 km
2021/09/24 09:30 KPKV 240930Z AUTO 35003KT 10SM CLR 18/14 A3005 RMK AO2 T01800143
 
KT20 - Gonzales Muni, Texas, USA
Distance from station: NNW 50mi, 81km
Updated: Fri, 24-Sep-2021 4:35am CDT
Clear
Clear
 Wind from calm
Wind: Calm
Temperature: 57°F , 14°C
Dew Point: 54°F , 12°C
Humidity: 88%
Barometer: 30.06 inHg , 1017.9 hPa
Clouds: Clear
Visibility: 10 miles , 16 km
2021/09/24 09:35 KT20 240935Z AUTO 00000KT 10SM CLR 14/12 A3006 RMK AO2 T01410124
KBEA - Beeville Muni, Texas, USA
Distance from station: SW 51mi, 83km
Updated: Fri, 24-Sep-2021 4:35am CDT
Clear
Clear
 Wind from ENE
Wind: ENE 3 mph , 6 km/h
Temperature: 59°F , 15°C
Dew Point: 59°F , 15°C
Humidity: 100%
Barometer: 30.03 inHg , 1016.9 hPa
Clouds: Clear
Visibility: 10 miles , 16 km
2021/09/24 09:35 KBEA 240935Z AUTO 07003KT 10SM CLR 15/15 A3003 RMK AO2 T01500145
 
KRKP - Rockport, Texas, USA
Distance from station: S 53mi, 86km
Updated: Fri, 24-Sep-2021 3:53am CDT
Clear
Clear
 Wind from ESE
Wind: ESE 7 mph , 11 km/h
Temperature: 73°F , 23°C
Dew Point: 57°F , 14°C
Humidity: 57%
Barometer: 30.02 inHg , 1016.6 hPa
Clouds: Clear
Visibility: 10 miles , 16 km
2021/09/24 08:53 KRKP 240853Z AUTO 11006KT 10SM CLR 23/14 A3002 RMK AO2 SLP168 T02280144 58005
KPSX - Palacios, Texas, USA
Distance from station: E 55mi, 88km
Updated: Fri, 24-Sep-2021 3:53am CDT
Clear
Clear
 Wind from NE
Wind: NE 6 mph , 9 km/h
Temperature: 61°F , 16°C
Dew Point: 57°F , 14°C
Humidity: 88%
Barometer: 30.04 inHg , 1017.3 hPa
Clouds: Clear
Visibility: 10 miles , 16 km
2021/09/24 08:53 KPSX 240853Z AUTO 05005KT 10SM CLR 16/14 A3004 RMK AO2 SLP173 T01610144 58003
 
KTFP - Ingleside/Tp Mcc, Texas, USA
Distance from station: S 65mi, 104km
Updated: Fri, 24-Sep-2021 4:35am CDT
Clear
Clear
 Wind from calm
Wind: Calm
Temperature: 66°F , 19°C
Dew Point: 59°F , 15°C
Humidity: 78%
Barometer: 30.02 inHg , 1016.6 hPa
Clouds: Clear
Visibility: 5 miles , 8 km
2021/09/24 09:35 KTFP 240935Z AUTO 00000KT 5SM CLR 19/15 A3002 RMK AO2 T01850149
K66R - Columbus, Texas, USA
Distance from station: NE 66mi, 106km
Updated: Fri, 24-Sep-2021 4:35am CDT
Clear
Clear
 Wind from calm
Wind: Calm
Temperature: 55°F , 13°C
Dew Point: 52°F , 11°C
Humidity: 88%
Barometer: 30.07 inHg , 1018.3 hPa
Clouds: Clear
Visibility: 10 miles , 16 km
2021/09/24 09:35 K66R 240935Z AUTO 00000KT 10SM CLR 13/11 A3007 RMK AO2 T01260112
 
KARM - Wharton, Texas, USA
Distance from station: ENE 66mi, 106km
Updated: Fri, 24-Sep-2021 4:35am CDT
Clear
Clear
 Wind from calm
Wind: Calm
Temperature: 55°F , 13°C
Dew Point: 54°F , 12°C
Humidity: 94%
Barometer: 30.06 inHg , 1017.9 hPa
Clouds: Clear
Visibility: 10 miles , 16 km
2021/09/24 09:35 KARM 240935Z AUTO 00000KT 10SM CLR 13/12 A3006 RMK AO2 T01290123
KRAS - Port Aransas, Texas, USA
Distance from station: S 71mi, 115km
Updated: Fri, 24-Sep-2021 4:35am CDT
Clear
Clear
 Wind from ENE
Wind: ENE 5 mph , 7 km/h
Temperature: 75°F , 24°C
Dew Point: 57°F , 14°C
Humidity: 54%
Barometer: 30.04 inHg , 1017.3 hPa
Clouds: Clear
Visibility: 10 miles , 16 km
2021/09/24 09:35 KRAS 240935Z AUTO 07004KT 10SM CLR 24/14 A3004 RMK AO2 T02360145
 
KELA - Eagle Lake, Texas, USA
Distance from station: NE 72mi, 115km
Updated: Fri, 24-Sep-2021 4:35am CDT
Clear
Clear
 Wind from calm
Wind: Calm
Temperature: 57°F , 14°C
Dew Point: 55°F , 13°C
Humidity: 94%
Barometer: 30.06 inHg , 1017.9 hPa
Clouds: Clear
Visibility: 10 miles , 16 km
2021/09/24 09:35 KELA 240935Z AUTO 00000KT 10SM CLR 14/13 A3006 RMK AO2 T01420129
K3T5 - La Grange, Texas, USA
Distance from station: N 73mi, 118km
Updated: Fri, 24-Sep-2021 4:35am CDT
Clear
Clear
 Wind from calm
Wind: Calm
Temperature: 57°F , 14°C
Dew Point: 54°F , 12°C
Humidity: 88%
Barometer: 30.04 inHg , 1017.3 hPa
Clouds: Clear
Visibility: 10 miles , 16 km
2021/09/24 09:35 K3T5 240935Z AUTO 00000KT 10SM CLR 14/12 A3004 RMK AO2 T01420124
 
KBYY - Bay City, Texas, USA
Distance from station: E 77mi, 124km
Updated: Fri, 24-Sep-2021 4:35am CDT
Clear
Clear
 Wind from calm
Wind: Calm
Temperature: 57°F , 14°C
Dew Point: 55°F , 13°C
Humidity: 94%
Barometer: 30.06 inHg , 1017.9 hPa
Clouds: Clear
Visibility: 10 miles , 16 km
2021/09/24 09:35 KBYY 240935Z AUTO 00000KT 10SM CLR 14/13 A3006 RMK AO2 T01450139
KCRP - Corpus Christi, Texas, USA
Distance from station: SSW 78mi, 126km
Updated: Fri, 24-Sep-2021 3:51am CDT
Clear
Clear
 Wind from ESE
Wind: ESE 7 mph , 11 km/h
Temperature: 64°F , 18°C
Dew Point: 57°F , 14°C
Humidity: 78%
Barometer: 30.02 inHg , 1016.6 hPa
Clouds: Clear
Visibility: 10 miles , 16 km
2021/09/24 08:51 KCRP 240851Z 11006KT 10SM CLR 18/14 A3002 RMK AO2 SLP165 T01830144 58007
 
KNGP - C. Christi Nas, Texas, USA
Distance from station: S 81mi, 130km
Updated: Fri, 24-Sep-2021 3:56am CDT
Clear
Clear
 Wind from ESE
Wind: ESE 5 mph , 7 km/h
Temperature: 72°F , 22°C
Dew Point: 59°F , 15°C
Humidity: 65%
Barometer: 30.02 inHg , 1016.6 hPa
Clouds: Clear
Visibility: 10 miles , 16 km
2021/09/24 08:56 KNGP 240856Z AUTO 11004KT 10SM CLR 22/15 A3002 RMK AO2 SLP165 T02170150 58007
KRBO - Robstown/Nueces, Texas, USA
Distance from station: SSW 81mi, 130km
Updated: Fri, 24-Sep-2021 4:35am CDT
Clear
Clear
 Wind from E
Wind: E 5 mph , 7 km/h
Temperature: 70°F , 21°C
Dew Point: 61°F , 16°C
Humidity: 73%
Barometer: 30.03 inHg , 1016.9 hPa
Clouds: Clear
Visibility: 10 miles , 16 km
2021/09/24 09:35 KRBO 240935Z AUTO 10004KT 10SM CLR 21/16 A3003 RMK AO2 T02050156
 
KBAZ - New Braunfels, Texas, USA
Distance from station: NW 81mi, 131km
Updated: Fri, 24-Sep-2021 3:51am CDT
Clear
Clear
 Wind from NW
Wind: NW 5 mph , 7 km/h
Temperature: 55°F , 13°C
Dew Point: 48°F , 9°C
Humidity: 77%
Barometer: 30.05 inHg , 1017.6 hPa
Clouds: Clear
Visibility: 10 miles , 16 km
2021/09/24 08:51 KBAZ 240851Z AUTO 32004KT 10SM CLR 13/09 A3005 RMK AO2 SLP169 T01330094 58005
KRND - Randolph Afb, Texas, USA
Distance from station: NW 82mi, 132km
Updated: Fri, 24-Sep-2021 3:56am CDT
Haze, Clear
Haze, Clear
 Wind from NW
Wind: NW 3 mph , 6 km/h
Temperature: 57°F , 14°C
Dew Point: 50°F , 10°C
Humidity: 77%
Barometer: 30.05 inHg , 1017.6 hPa
Summary: Haze
Clouds: Clear
Visibility: 4 miles , 6 km
2021/09/24 08:56 KRND 240856Z AUTO 32003KT 4SM HZ CLR 14/10 A3005 RMK AO2 SLP170 T01370099 58002
 
KHYI - San Marcos, Texas, USA
Distance from station: NNW 84mi, 135km
Updated: Fri, 24-Sep-2021 3:56am CDT
Clear
Clear
 Wind from NNW
Wind: NNW 5 mph , 7 km/h
Temperature: 54°F , 12°C
Dew Point: 46°F , 8°C
Humidity: 77%
Barometer: 30.08 inHg , 1018.6 hPa
Clouds: Clear
Visibility: 10 miles , 16 km
2021/09/24 08:56 KHYI 240856Z AUTO 34004KT 10SM CLR 12/08 A3008 RMK AO2 SLP178 6//// T01220078 56004 PNO $
KPEZ - Pleasanton Muni, Texas, USA
Distance from station: W 84mi, 135km
Updated: Fri, 24-Sep-2021 4:35am CDT
Clear
Clear
 Wind from calm
Wind: Calm
Temperature: 57°F , 14°C
Dew Point: 52°F , 11°C
Humidity: 82%
Barometer: 30.06 inHg , 1017.9 hPa
Clouds: Clear
Visibility: 10 miles , 16 km
2021/09/24 09:35 KPEZ 240935Z AUTO 00000KT 10SM CLR 14/11 A3006 RMK AO2 T01350106